sensor_id;sensor_type;location;lat;lon;timestamp;temperature;humidity
77467;DHT22;66564;42.482;25.548;2023-06-26T00:02:12;23.38;65.04
77467;DHT22;66564;42.482;25.548;2023-06-26T00:04:37;23.35;65.76
77467;DHT22;66564;42.482;25.548;2023-06-26T00:07:04;23.33;64.42
77467;DHT22;66564;42.482;25.548;2023-06-26T00:09:30;23.32;64.68
77467;DHT22;66564;42.482;25.548;2023-06-26T00:11:55;23.27;65.36
77467;DHT22;66564;42.482;25.548;2023-06-26T00:14:21;23.23;64.77
77467;DHT22;66564;42.482;25.548;2023-06-26T00:16:47;23.23;64.36
77467;DHT22;66564;42.482;25.548;2023-06-26T00:19:16;23.19;65.54
77467;DHT22;66564;42.482;25.548;2023-06-26T00:21:41;23.16;65.90
77467;DHT22;66564;42.482;25.548;2023-06-26T00:24:13;23.13;65.01
77467;DHT22;66564;42.482;25.548;2023-06-26T00:26:39;23.09;65.70
77467;DHT22;66564;42.482;25.548;2023-06-26T00:29:05;23.02;64.98
77467;DHT22;66564;42.482;25.548;2023-06-26T00:31:30;22.99;64.99
77467;DHT22;66564;42.482;25.548;2023-06-26T00:33:56;22.89;65.39
77467;DHT22;66564;42.482;25.548;2023-06-26T00:36:22;22.81;65.44
77467;DHT22;66564;42.482;25.548;2023-06-26T00:38:51;22.73;65.83
77467;DHT22;66564;42.482;25.548;2023-06-26T00:41:17;22.69;65.77
77467;DHT22;66564;42.482;25.548;2023-06-26T00:43:43;22.64;66.59
77467;DHT22;66564;42.482;25.548;2023-06-26T00:46:10;22.58;66.70
77467;DHT22;66564;42.482;25.548;2023-06-26T00:48:37;22.48;68.57
77467;DHT22;66564;42.482;25.548;2023-06-26T00:51:04;22.41;68.40
77467;DHT22;66564;42.482;25.548;2023-06-26T00:53:31;22.38;69.28
77467;DHT22;66564;42.482;25.548;2023-06-26T00:55:57;22.33;68.24
77467;DHT22;66564;42.482;25.548;2023-06-26T00:58:23;22.36;69.42
77467;DHT22;66564;42.482;25.548;2023-06-26T01:00:50;22.33;69.76
77467;DHT22;66564;42.482;25.548;2023-06-26T01:03:16;22.25;68.96
77467;DHT22;66564;42.482;25.548;2023-06-26T01:05:42;22.25;69.14
77467;DHT22;66564;42.482;25.548;2023-06-26T01:08:11;22.24;69.40
77467;DHT22;66564;42.482;25.548;2023-06-26T01:10:37;22.13;69.61
77467;DHT22;66564;42.482;25.548;2023-06-26T01:13:03;22.14;69.10
77467;DHT22;66564;42.482;25.548;2023-06-26T01:15:29;22.14;69.36
77467;DHT22;66564;42.482;25.548;2023-06-26T01:17:55;22.10;68.38
77467;DHT22;66564;42.482;25.548;2023-06-26T01:20:25;22.14;69.00
77467;DHT22;66564;42.482;25.548;2023-06-26T01:28:20;22.04;68.72
77467;DHT22;66564;42.482;25.548;2023-06-26T01:30:45;21.92;68.42
77467;DHT22;66564;42.482;25.548;2023-06-26T01:33:13;21.83;69.40
77467;DHT22;66564;42.482;25.548;2023-06-26T01:35:38;21.84;68.00
77467;DHT22;66564;42.482;25.548;2023-06-26T01:38:24;21.86;68.76
77467;DHT22;66564;42.482;25.548;2023-06-26T01:40:51;21.86;68.90
77467;DHT22;66564;42.482;25.548;2023-06-26T01:43:57;21.92;68.39
77467;DHT22;66564;42.482;25.548;2023-06-26T01:49:15;21.97;69.64
77467;DHT22;66564;42.482;25.548;2023-06-26T01:51:47;21.97;69.27
77467;DHT22;66564;42.482;25.548;2023-06-26T01:54:18;21.97;69.08
77467;DHT22;66564;42.482;25.548;2023-06-26T01:56:45;21.96;69.02
77467;DHT22;66564;42.482;25.548;2023-06-26T01:59:12;21.97;68.89
77467;DHT22;66564;42.482;25.548;2023-06-26T02:01:39;21.94;68.63
77467;DHT22;66564;42.482;25.548;2023-06-26T02:04:05;21.96;70.21
77467;DHT22;66564;42.482;25.548;2023-06-26T02:06:30;21.96;68.96
77467;DHT22;66564;42.482;25.548;2023-06-26T02:08:56;21.97;69.50
77467;DHT22;66564;42.482;25.548;2023-06-26T02:11:22;21.96;68.41
77467;DHT22;66564;42.482;25.548;2023-06-26T02:13:48;21.97;68.30
77467;DHT22;66564;42.482;25.548;2023-06-26T02:16:13;21.97;67.97
77467;DHT22;66564;42.482;25.548;2023-06-26T02:18:39;22.01;68.34
77467;DHT22;66564;42.482;25.548;2023-06-26T02:21:05;22.01;68.35
77467;DHT22;66564;42.482;25.548;2023-06-26T02:23:31;22.01;68.94
77467;DHT22;66564;42.482;25.548;2023-06-26T02:25:56;22.01;68.24
77467;DHT22;66564;42.482;25.548;2023-06-26T02:28:22;22.03;68.01
77467;DHT22;66564;42.482;25.548;2023-06-26T02:30:47;22.07;67.19
77467;DHT22;66564;42.482;25.548;2023-06-26T02:33:12;22.07;67.92
77467;DHT22;66564;42.482;25.548;2023-06-26T02:35:38;22.10;68.10
77467;DHT22;66564;42.482;25.548;2023-06-26T02:38:04;22.08;67.49
77467;DHT22;66564;42.482;25.548;2023-06-26T02:40:29;22.07;68.29
77467;DHT22;66564;42.482;25.548;2023-06-26T02:42:55;22.08;67.37
77467;DHT22;66564;42.482;25.548;2023-06-26T02:45:21;22.03;66.67
77467;DHT22;66564;42.482;25.548;2023-06-26T02:47:46;22.03;67.77
77467;DHT22;66564;42.482;25.548;2023-06-26T02:50:12;22.08;66.39
77467;DHT22;66564;42.482;25.548;2023-06-26T02:52:37;22.00;67.34
77467;DHT22;66564;42.482;25.548;2023-06-26T02:55:03;22.03;67.11
77467;DHT22;66564;42.482;25.548;2023-06-26T02:57:31;22.00;66.72
77467;DHT22;66564;42.482;25.548;2023-06-26T02:59:56;22.00;67.56
77467;DHT22;66564;42.482;25.548;2023-06-26T03:02:21;22.03;66.95
77467;DHT22;66564;42.482;25.548;2023-06-26T03:04:47;22.01;67.80
77467;DHT22;66564;42.482;25.548;2023-06-26T03:07:12;22.03;67.29
77467;DHT22;66564;42.482;25.548;2023-06-26T03:09:38;22.06;67.24
77467;DHT22;66564;42.482;25.548;2023-06-26T03:12:04;22.07;66.45
77467;DHT22;66564;42.482;25.548;2023-06-26T03:14:29;22.07;67.46
77467;DHT22;66564;42.482;25.548;2023-06-26T03:16:57;22.06;67.53
77467;DHT22;66564;42.482;25.548;2023-06-26T03:19:24;22.07;67.95
77467;DHT22;66564;42.482;25.548;2023-06-26T03:21:50;22.07;67.68
77467;DHT22;66564;42.482;25.548;2023-06-26T03:24:15;22.01;67.62
77467;DHT22;66564;42.482;25.548;2023-06-26T03:26:41;22.04;67.83
77467;DHT22;66564;42.482;25.548;2023-06-26T03:29:06;22.03;67.54
77467;DHT22;66564;42.482;25.548;2023-06-26T03:31:32;22.03;67.49
77467;DHT22;66564;42.482;25.548;2023-06-26T03:33:57;22.00;67.66
77467;DHT22;66564;42.482;25.548;2023-06-26T03:36:23;21.98;67.97
77467;DHT22;66564;42.482;25.548;2023-06-26T03:38:50;22.01;67.15
77467;DHT22;66564;42.482;25.548;2023-06-26T03:41:16;22.00;67.47
77467;DHT22;66564;42.482;25.548;2023-06-26T03:43:42;22.03;66.62
77467;DHT22;66564;42.482;25.548;2023-06-26T03:46:07;21.98;67.83
77467;DHT22;66564;42.482;25.548;2023-06-26T03:48:33;21.96;67.37
77467;DHT22;66564;42.482;25.548;2023-06-26T03:50:58;21.96;67.27
77467;DHT22;66564;42.482;25.548;2023-06-26T03:53:27;21.97;68.13
77467;DHT22;66564;42.482;25.548;2023-06-26T03:55:52;21.97;67.98
77467;DHT22;66564;42.482;25.548;2023-06-26T03:58:18;22.00;68.06
77467;DHT22;66564;42.482;25.548;2023-06-26T04:00:44;21.97;67.61
77467;DHT22;66564;42.482;25.548;2023-06-26T04:03:09;21.97;67.76
77467;DHT22;66564;42.482;25.548;2023-06-26T04:05:35;21.98;67.79
77467;DHT22;66564;42.482;25.548;2023-06-26T04:08:01;21.98;67.60
77467;DHT22;66564;42.482;25.548;2023-06-26T04:10:27;21.98;68.26
77467;DHT22;66564;42.482;25.548;2023-06-26T04:12:53;21.97;67.62
77467;DHT22;66564;42.482;25.548;2023-06-26T04:15:18;22.01;67.93
77467;DHT22;66564;42.482;25.548;2023-06-26T04:17:44;22.06;68.04
77467;DHT22;66564;42.482;25.548;2023-06-26T04:20:10;21.97;67.50
77467;DHT22;66564;42.482;25.548;2023-06-26T04:22:35;22.01;67.81
77467;DHT22;66564;42.482;25.548;2023-06-26T04:25:02;22.00;67.61
77467;DHT22;66564;42.482;25.548;2023-06-26T04:27:28;22.04;68.23
77467;DHT22;66564;42.482;25.548;2023-06-26T04:29:54;22.08;67.99
77467;DHT22;66564;42.482;25.548;2023-06-26T04:32:19;22.14;67.91
77467;DHT22;66564;42.482;25.548;2023-06-26T04:34:45;22.14;68.15
77467;DHT22;66564;42.482;25.548;2023-06-26T04:37:10;22.17;67.78
77467;DHT22;66564;42.482;25.548;2023-06-26T04:39:37;22.20;67.26
77467;DHT22;66564;42.482;25.548;2023-06-26T04:42:04;22.24;67.40
77467;DHT22;66564;42.482;25.548;2023-06-26T04:44:29;22.24;67.36
77467;DHT22;66564;42.482;25.548;2023-06-26T04:46:55;22.25;67.37
77467;DHT22;66564;42.482;25.548;2023-06-26T04:49:20;22.28;67.79
77467;DHT22;66564;42.482;25.548;2023-06-26T04:51:46;22.33;67.52
77467;DHT22;66564;42.482;25.548;2023-06-26T04:54:12;22.34;67.66
77467;DHT22;66564;42.482;25.548;2023-06-26T04:56:38;22.41;67.38
77467;DHT22;66564;42.482;25.548;2023-06-26T04:59:05;22.44;67.23
77467;DHT22;66564;42.482;25.548;2023-06-26T05:01:30;22.43;67.69
77467;DHT22;66564;42.482;25.548;2023-06-26T05:03:57;22.44;67.39
77467;DHT22;66564;42.482;25.548;2023-06-26T05:06:23;22.45;66.74
77467;DHT22;66564;42.482;25.548;2023-06-26T05:08:49;22.48;67.12
77467;DHT22;66564;42.482;25.548;2023-06-26T05:11:14;22.51;66.91
77467;DHT22;66564;42.482;25.548;2023-06-26T05:13:40;22.48;68.01
77467;DHT22;66564;42.482;25.548;2023-06-26T05:16:05;22.51;67.70
77467;DHT22;66564;42.482;25.548;2023-06-26T05:18:33;22.50;67.22
77467;DHT22;66564;42.482;25.548;2023-06-26T05:20:59;22.52;67.96
77467;DHT22;66564;42.482;25.548;2023-06-26T05:23:25;22.47;67.30
77467;DHT22;66564;42.482;25.548;2023-06-26T05:25:52;22.45;67.93
77467;DHT22;66564;42.482;25.548;2023-06-26T05:28:18;22.47;67.39
77467;DHT22;66564;42.482;25.548;2023-06-26T05:30:43;22.47;67.83
77467;DHT22;66564;42.482;25.548;2023-06-26T05:33:11;22.48;67.80
77467;DHT22;66564;42.482;25.548;2023-06-26T05:35:37;22.50;68.53
77467;DHT22;66564;42.482;25.548;2023-06-26T05:38:03;22.50;68.10
77467;DHT22;66564;42.482;25.548;2023-06-26T05:40:29;22.58;68.22
77467;DHT22;66564;42.482;25.548;2023-06-26T05:42:54;22.62;68.36
77467;DHT22;66564;42.482;25.548;2023-06-26T05:45:20;22.64;68.72
77467;DHT22;66564;42.482;25.548;2023-06-26T05:47:45;22.67;68.77
77467;DHT22;66564;42.482;25.548;2023-06-26T05:50:12;22.72;68.12
77467;DHT22;66564;42.482;25.548;2023-06-26T05:52:38;22.73;67.80
77467;DHT22;66564;42.482;25.548;2023-06-26T05:55:04;22.79;68.71
77467;DHT22;66564;42.482;25.548;2023-06-26T05:57:33;22.82;68.82
77467;DHT22;66564;42.482;25.548;2023-06-26T06:00:00;22.89;68.99
77467;DHT22;66564;42.482;25.548;2023-06-26T06:02:26;23.01;69.19
77467;DHT22;66564;42.482;25.548;2023-06-26T06:04:51;23.11;69.03
77467;DHT22;66564;42.482;25.548;2023-06-26T06:07:17;23.19;68.37
77467;DHT22;66564;42.482;25.548;2023-06-26T06:09:43;23.26;68.83
77467;DHT22;66564;42.482;25.548;2023-06-26T06:12:11;23.38;67.96
77467;DHT22;66564;42.482;25.548;2023-06-26T06:14:36;23.49;69.16
77467;DHT22;66564;42.482;25.548;2023-06-26T06:17:02;23.62;68.70
77467;DHT22;66564;42.482;25.548;2023-06-26T06:19:28;23.71;67.25
77467;DHT22;66564;42.482;25.548;2023-06-26T06:21:53;23.78;67.69
77467;DHT22;66564;42.482;25.548;2023-06-26T06:24:19;23.83;67.78
77467;DHT22;66564;42.482;25.548;2023-06-26T06:26:45;23.92;66.49
77467;DHT22;66564;42.482;25.548;2023-06-26T06:29:10;23.98;66.88
77467;DHT22;66564;42.482;25.548;2023-06-26T06:31:37;24.01;65.62
77467;DHT22;66564;42.482;25.548;2023-06-26T06:34:03;24.07;65.11
77467;DHT22;66564;42.482;25.548;2023-06-26T06:36:28;24.07;64.88
77467;DHT22;66564;42.482;25.548;2023-06-26T06:38:54;24.04;64.14
77467;DHT22;66564;42.482;25.548;2023-06-26T06:41:20;24.01;64.48
77467;DHT22;66564;42.482;25.548;2023-06-26T06:43:45;24.00;64.72
77467;DHT22;66564;42.482;25.548;2023-06-26T06:46:11;24.00;64.61
77467;DHT22;66564;42.482;25.548;2023-06-26T06:48:37;24.03;64.75
77467;DHT22;66564;42.482;25.548;2023-06-26T06:51:02;24.04;64.51
77467;DHT22;66564;42.482;25.548;2023-06-26T06:53:28;24.01;64.14
77467;DHT22;66564;42.482;25.548;2023-06-26T06:55:54;23.96;64.29
77467;DHT22;66564;42.482;25.548;2023-06-26T06:58:20;23.93;65.06
77467;DHT22;66564;42.482;25.548;2023-06-26T07:00:45;23.90;65.77
77467;DHT22;66564;42.482;25.548;2023-06-26T07:03:11;23.83;65.07
77467;DHT22;66564;42.482;25.548;2023-06-26T07:05:37;23.80;65.20
77467;DHT22;66564;42.482;25.548;2023-06-26T07:08:03;23.74;65.39
77467;DHT22;66564;42.482;25.548;2023-06-26T07:10:29;23.63;66.00
77467;DHT22;66564;42.482;25.548;2023-06-26T07:12:54;23.56;65.65
77467;DHT22;66564;42.482;25.548;2023-06-26T07:15:21;23.50;66.80
77467;DHT22;66564;42.482;25.548;2023-06-26T07:17:47;23.43;66.33
77467;DHT22;66564;42.482;25.548;2023-06-26T07:20:12;23.42;67.33
77467;DHT22;66564;42.482;25.548;2023-06-26T07:22:41;23.36;66.86
77467;DHT22;66564;42.482;25.548;2023-06-26T07:25:07;23.29;67.15
77467;DHT22;66564;42.482;25.548;2023-06-26T07:27:40;23.29;68.01
77467;DHT22;66564;42.482;25.548;2023-06-26T07:30:06;23.23;67.56
77467;DHT22;66564;42.482;25.548;2023-06-26T07:32:34;23.19;68.21
77467;DHT22;66564;42.482;25.548;2023-06-26T07:34:59;23.19;68.66
77467;DHT22;66564;42.482;25.548;2023-06-26T07:37:25;23.16;68.18
77467;DHT22;66564;42.482;25.548;2023-06-26T07:39:51;23.15;69.16
77467;DHT22;66564;42.482;25.548;2023-06-26T07:42:16;23.12;69.44
77467;DHT22;66564;42.482;25.548;2023-06-26T07:44:44;23.18;69.30
77467;DHT22;66564;42.482;25.548;2023-06-26T07:47:10;23.15;68.44
77467;DHT22;66564;42.482;25.548;2023-06-26T07:49:37;23.19;68.61
77467;DHT22;66564;42.482;25.548;2023-06-26T07:52:05;23.20;68.74
77467;DHT22;66564;42.482;25.548;2023-06-26T07:54:31;23.22;68.77
77467;DHT22;66564;42.482;25.548;2023-06-26T07:56:58;23.26;68.92
77467;DHT22;66564;42.482;25.548;2023-06-26T07:59:26;23.29;69.67
77467;DHT22;66564;42.482;25.548;2023-06-26T08:01:53;23.35;68.93
77467;DHT22;66564;42.482;25.548;2023-06-26T08:04:21;23.33;68.63
77467;DHT22;66564;42.482;25.548;2023-06-26T08:06:54;23.41;68.91
77467;DHT22;66564;42.482;25.548;2023-06-26T08:09:23;23.38;67.91
77467;DHT22;66564;42.482;25.548;2023-06-26T08:11:49;23.33;68.09
77467;DHT22;66564;42.482;25.548;2023-06-26T08:14:17;23.23;67.73
77467;DHT22;66564;42.482;25.548;2023-06-26T08:16:43;23.23;68.05
77467;DHT22;66564;42.482;25.548;2023-06-26T08:19:12;23.23;68.46
77467;DHT22;66564;42.482;25.548;2023-06-26T08:21:37;23.23;69.12
77467;DHT22;66564;42.482;25.548;2023-06-26T08:24:03;23.29;68.29
77467;DHT22;66564;42.482;25.548;2023-06-26T08:26:28;23.26;68.70
77467;DHT22;66564;42.482;25.548;2023-06-26T08:28:54;23.26;68.01
77467;DHT22;66564;42.482;25.548;2023-06-26T08:31:23;23.25;67.43
77467;DHT22;66564;42.482;25.548;2023-06-26T08:33:48;23.26;68.98
77467;DHT22;66564;42.482;25.548;2023-06-26T08:36:14;23.26;68.68
77467;DHT22;66564;42.482;25.548;2023-06-26T08:38:39;23.30;68.93
77467;DHT22;66564;42.482;25.548;2023-06-26T08:41:06;23.36;69.34
77467;DHT22;66564;42.482;25.548;2023-06-26T08:43:32;23.45;70.12
77467;DHT22;66564;42.482;25.548;2023-06-26T08:45:59;23.53;70.23
77467;DHT22;66564;42.482;25.548;2023-06-26T08:48:25;23.67;70.59
77467;DHT22;66564;42.482;25.548;2023-06-26T08:50:52;23.88;70.23
77467;DHT22;66564;42.482;25.548;2023-06-26T08:53:26;24.08;72.41
77467;DHT22;66564;42.482;25.548;2023-06-26T08:55:57;24.22;70.49
77467;DHT22;66564;42.482;25.548;2023-06-26T08:58:23;24.37;69.46
77467;DHT22;66564;42.482;25.548;2023-06-26T09:00:49;24.55;69.20
77467;DHT22;66564;42.482;25.548;2023-06-26T09:03:15;24.75;69.71
77467;DHT22;66564;42.482;25.548;2023-06-26T09:05:41;24.91;68.33
77467;DHT22;66564;42.482;25.548;2023-06-26T09:08:09;25.05;67.86
77467;DHT22;66564;42.482;25.548;2023-06-26T09:10:36;25.19;67.42
77467;DHT22;66564;42.482;25.548;2023-06-26T09:13:02;25.36;65.55
77467;DHT22;66564;42.482;25.548;2023-06-26T09:15:43;25.47;64.99
77467;DHT22;66564;42.482;25.548;2023-06-26T09:18:12;25.56;63.96
77467;DHT22;66564;42.482;25.548;2023-06-26T09:20:38;25.60;63.47
77467;DHT22;66564;42.482;25.548;2023-06-26T09:23:03;25.66;63.37
77467;DHT22;66564;42.482;25.548;2023-06-26T09:25:29;25.70;62.78
77467;DHT22;66564;42.482;25.548;2023-06-26T09:27:55;25.67;62.95
77467;DHT22;66564;42.482;25.548;2023-06-26T09:30:21;25.70;63.72
77467;DHT22;66564;42.482;25.548;2023-06-26T09:32:47;25.73;63.01
77467;DHT22;66564;42.482;25.548;2023-06-26T09:35:13;25.73;62.71
77467;DHT22;66564;42.482;25.548;2023-06-26T09:37:39;25.76;63.13
77467;DHT22;66564;42.482;25.548;2023-06-26T09:40:08;25.80;62.21
77467;DHT22;66564;42.482;25.548;2023-06-26T09:42:34;25.84;62.13
77467;DHT22;66564;42.482;25.548;2023-06-26T09:45:00;25.81;61.93
77467;DHT22;66564;42.482;25.548;2023-06-26T09:47:30;25.80;62.54
77467;DHT22;66564;42.482;25.548;2023-06-26T09:49:56;25.76;61.47
77467;DHT22;66564;42.482;25.548;2023-06-26T09:52:21;25.69;61.82
77467;DHT22;66564;42.482;25.548;2023-06-26T09:54:47;25.66;61.72
77467;DHT22;66564;42.482;25.548;2023-06-26T09:57:15;25.57;62.23
77467;DHT22;66564;42.482;25.548;2023-06-26T09:59:42;25.54;62.34
77467;DHT22;66564;42.482;25.548;2023-06-26T10:02:08;25.51;63.17
77467;DHT22;66564;42.482;25.548;2023-06-26T10:04:37;25.46;63.42
77467;DHT22;66564;42.482;25.548;2023-06-26T10:07:05;25.40;63.16
77467;DHT22;66564;42.482;25.548;2023-06-26T10:09:31;25.36;63.85
77467;DHT22;66564;42.482;25.548;2023-06-26T10:11:58;25.32;63.83
77467;DHT22;66564;42.482;25.548;2023-06-26T10:14:31;25.27;64.64
77467;DHT22;66564;42.482;25.548;2023-06-26T10:16:58;25.25;64.67
77467;DHT22;66564;42.482;25.548;2023-06-26T10:19:25;25.19;63.96
77467;DHT22;66564;42.482;25.548;2023-06-26T10:21:53;25.14;66.15
77467;DHT22;66564;42.482;25.548;2023-06-26T10:24:19;25.06;65.05
77467;DHT22;66564;42.482;25.548;2023-06-26T10:26:49;25.05;65.69
77467;DHT22;66564;42.482;25.548;2023-06-26T10:29:17;24.95;65.27
77467;DHT22;66564;42.482;25.548;2023-06-26T10:31:48;24.95;65.16
77467;DHT22;66564;42.482;25.548;2023-06-26T10:34:14;24.94;65.10
77467;DHT22;66564;42.482;25.548;2023-06-26T10:36:40;24.89;65.60
77467;DHT22;66564;42.482;25.548;2023-06-26T10:39:06;24.82;65.62
77467;DHT22;66564;42.482;25.548;2023-06-26T10:41:39;24.79;65.53
77467;DHT22;66564;42.482;25.548;2023-06-26T10:44:12;24.84;65.98
77467;DHT22;66564;42.482;25.548;2023-06-26T10:46:56;24.84;65.67
77467;DHT22;66564;42.482;25.548;2023-06-26T10:49:28;24.84;66.05
77467;DHT22;66564;42.482;25.548;2023-06-26T10:51:55;24.84;65.46
77467;DHT22;66564;42.482;25.548;2023-06-26T10:54:29;24.85;66.21
77467;DHT22;66564;42.482;25.548;2023-06-26T10:56:57;24.89;66.46
77467;DHT22;66564;42.482;25.548;2023-06-26T10:59:28;24.94;66.43
77467;DHT22;66564;42.482;25.548;2023-06-26T11:02:01;24.94;66.74
77467;DHT22;66564;42.482;25.548;2023-06-26T11:04:42;24.94;64.32
77467;DHT22;66564;42.482;25.548;2023-06-26T11:07:16;24.91;65.08
77467;DHT22;66564;42.482;25.548;2023-06-26T11:09:57;24.85;65.32
77467;DHT22;66564;42.482;25.548;2023-06-26T11:15:12;24.85;65.92
77467;DHT22;66564;42.482;25.548;2023-06-26T11:17:39;24.86;65.43
77467;DHT22;66564;42.482;25.548;2023-06-26T11:20:06;24.89;65.61
77467;DHT22;66564;42.482;25.548;2023-06-26T11:22:35;24.85;65.75
77467;DHT22;66564;42.482;25.548;2023-06-26T11:25:02;24.89;66.66
77467;DHT22;66564;42.482;25.548;2023-06-26T11:27:38;24.94;65.83
77467;DHT22;66564;42.482;25.548;2023-06-26T11:30:21;24.99;66.69
77467;DHT22;66564;42.482;25.548;2023-06-26T11:32:47;25.02;66.62
77467;DHT22;66564;42.482;25.548;2023-06-26T11:35:12;25.08;66.56
77467;DHT22;66564;42.482;25.548;2023-06-26T11:37:38;25.12;66.43
77467;DHT22;66564;42.482;25.548;2023-06-26T11:40:19;25.16;65.81
77467;DHT22;66564;42.482;25.548;2023-06-26T11:42:45;25.22;65.90
77467;DHT22;66564;42.482;25.548;2023-06-26T11:45:10;25.32;66.04
77467;DHT22;66564;42.482;25.548;2023-06-26T11:47:37;25.40;66.00
77467;DHT22;66564;42.482;25.548;2023-06-26T11:50:04;25.57;66.44
77467;DHT22;66564;42.482;25.548;2023-06-26T11:52:32;25.70;64.78
77467;DHT22;66564;42.482;25.548;2023-06-26T11:54:58;25.80;63.68
77467;DHT22;66564;42.482;25.548;2023-06-26T11:57:23;25.98;63.57
77467;DHT22;66564;42.482;25.548;2023-06-26T11:59:50;26.04;62.91
77467;DHT22;66564;42.482;25.548;2023-06-26T12:02:17;26.16;62.34
77467;DHT22;66564;42.482;25.548;2023-06-26T12:04:43;26.25;62.26
77467;DHT22;66564;42.482;25.548;2023-06-26T12:07:10;26.37;61.44
77467;DHT22;66564;42.482;25.548;2023-06-26T12:09:41;26.47;60.34
77467;DHT22;66564;42.482;25.548;2023-06-26T12:12:08;26.59;61.26
77467;DHT22;66564;42.482;25.548;2023-06-26T12:14:34;26.76;60.59
77467;DHT22;66564;42.482;25.548;2023-06-26T12:17:13;26.82;57.51
77467;DHT22;66564;42.482;25.548;2023-06-26T12:19:46;26.79;55.92
77467;DHT22;66564;42.482;25.548;2023-06-26T12:22:16;26.79;56.48
77467;DHT22;66564;42.482;25.548;2023-06-26T12:24:43;26.88;57.74
77467;DHT22;66564;42.482;25.548;2023-06-26T12:27:11;26.96;56.96
77467;DHT22;66564;42.482;25.548;2023-06-26T12:29:39;27.02;57.82
77467;DHT22;66564;42.482;25.548;2023-06-26T12:32:09;27.22;59.10
77467;DHT22;66564;42.482;25.548;2023-06-26T12:34:37;27.38;57.19
77467;DHT22;66564;42.482;25.548;2023-06-26T12:37:05;27.47;56.21
77467;DHT22;66564;42.482;25.548;2023-06-26T12:39:48;27.63;55.44
77467;DHT22;66564;42.482;25.548;2023-06-26T12:42:19;27.67;54.66
77467;DHT22;66564;42.482;25.548;2023-06-26T12:44:46;27.74;54.21
77467;DHT22;66564;42.482;25.548;2023-06-26T12:47:12;27.80;54.54
77467;DHT22;66564;42.482;25.548;2023-06-26T12:49:40;27.87;55.17
77467;DHT22;66564;42.482;25.548;2023-06-26T12:52:09;27.94;54.30
77467;DHT22;66564;42.482;25.548;2023-06-26T12:54:35;27.93;52.32
77467;DHT22;66564;42.482;25.548;2023-06-26T12:57:01;27.97;53.46
77467;DHT22;66564;42.482;25.548;2023-06-26T12:59:26;27.94;54.70
77467;DHT22;66564;42.482;25.548;2023-06-26T13:01:52;28.00;51.89
77467;DHT22;66564;42.482;25.548;2023-06-26T13:04:17;27.90;52.00
77467;DHT22;66564;42.482;25.548;2023-06-26T13:06:43;28.00;51.62
77467;DHT22;66564;42.482;25.548;2023-06-26T13:09:09;28.03;52.35
77467;DHT22;66564;42.482;25.548;2023-06-26T13:11:37;28.10;52.18
77467;DHT22;66564;42.482;25.548;2023-06-26T13:14:02;28.18;52.08
77467;DHT22;66564;42.482;25.548;2023-06-26T13:16:28;28.28;52.09
77467;DHT22;66564;42.482;25.548;2023-06-26T13:18:54;28.38;53.09
77467;DHT22;66564;42.482;25.548;2023-06-26T13:21:21;28.55;52.00
77467;DHT22;66564;42.482;25.548;2023-06-26T13:23:46;28.62;50.42
77467;DHT22;66564;42.482;25.548;2023-06-26T13:26:12;28.72;50.27
77467;DHT22;66564;42.482;25.548;2023-06-26T13:28:38;28.75;50.38
77467;DHT22;66564;42.482;25.548;2023-06-26T13:31:04;28.74;47.67
77467;DHT22;66564;42.482;25.548;2023-06-26T13:33:30;28.57;48.59
77467;DHT22;66564;42.482;25.548;2023-06-26T13:35:56;28.71;50.44
77467;DHT22;66564;42.482;25.548;2023-06-26T13:38:22;28.87;51.08
77467;DHT22;66564;42.482;25.548;2023-06-26T13:40:52;29.00;50.85
77467;DHT22;66564;42.482;25.548;2023-06-26T13:43:18;29.02;47.76
77467;DHT22;66564;42.482;25.548;2023-06-26T13:45:44;29.08;49.10
77467;DHT22;66564;42.482;25.548;2023-06-26T13:48:09;29.10;50.50
77467;DHT22;66564;42.482;25.548;2023-06-26T13:50:35;29.19;49.35
77467;DHT22;66564;42.482;25.548;2023-06-26T13:53:00;29.20;48.64
77467;DHT22;66564;42.482;25.548;2023-06-26T13:55:28;29.22;48.89
77467;DHT22;66564;42.482;25.548;2023-06-26T13:57:53;29.22;48.32
77467;DHT22;66564;42.482;25.548;2023-06-26T14:00:20;29.12;47.88
77467;DHT22;66564;42.482;25.548;2023-06-26T14:02:56;28.99;48.14
77467;DHT22;66564;42.482;25.548;2023-06-26T14:05:22;28.75;47.96
77467;DHT22;66564;42.482;25.548;2023-06-26T14:07:48;28.78;51.64
77467;DHT22;66564;42.482;25.548;2023-06-26T14:10:13;28.74;53.80
77467;DHT22;66564;42.482;25.548;2023-06-26T14:12:40;28.67;54.22
77467;DHT22;66564;42.482;25.548;2023-06-26T14:15:06;28.62;55.37
77467;DHT22;66564;42.482;25.548;2023-06-26T14:17:32;28.52;54.65
77467;DHT22;66564;42.482;25.548;2023-06-26T14:19:57;28.37;54.70
77467;DHT22;66564;42.482;25.548;2023-06-26T14:22:26;28.15;54.08
77467;DHT22;66564;42.482;25.548;2023-06-26T14:24:52;28.05;56.24
77467;DHT22;66564;42.482;25.548;2023-06-26T14:27:18;27.87;58.53
77467;DHT22;66564;42.482;25.548;2023-06-26T14:29:43;27.71;59.18
77467;DHT22;66564;42.482;25.548;2023-06-26T14:32:09;27.59;59.88
77467;DHT22;66564;42.482;25.548;2023-06-26T14:34:34;27.50;60.22
77467;DHT22;66564;42.482;25.548;2023-06-26T14:37:01;27.42;61.72
77467;DHT22;66564;42.482;25.548;2023-06-26T14:39:26;27.40;61.73
77467;DHT22;66564;42.482;25.548;2023-06-26T14:41:52;27.38;61.67
77467;DHT22;66564;42.482;25.548;2023-06-26T14:44:18;27.33;59.59
77467;DHT22;66564;42.482;25.548;2023-06-26T14:46:43;27.30;60.07
77467;DHT22;66564;42.482;25.548;2023-06-26T14:49:09;27.30;59.71
77467;DHT22;66564;42.482;25.548;2023-06-26T14:51:34;27.33;59.79
77467;DHT22;66564;42.482;25.548;2023-06-26T14:54:01;27.32;60.03
77467;DHT22;66564;42.482;25.548;2023-06-26T14:56:27;27.28;59.62
77467;DHT22;66564;42.482;25.548;2023-06-26T14:58:53;27.22;60.13
77467;DHT22;66564;42.482;25.548;2023-06-26T15:01:19;27.13;61.12
77467;DHT22;66564;42.482;25.548;2023-06-26T15:03:46;26.92;59.23
77467;DHT22;66564;42.482;25.548;2023-06-26T15:06:11;26.65;59.06
77467;DHT22;66564;42.482;25.548;2023-06-26T15:08:37;26.47;59.90
77467;DHT22;66564;42.482;25.548;2023-06-26T15:11:02;26.25;58.77
77467;DHT22;66564;42.482;25.548;2023-06-26T15:13:28;25.93;60.20
77467;DHT22;66564;42.482;25.548;2023-06-26T15:15:54;25.79;60.13
77467;DHT22;66564;42.482;25.548;2023-06-26T15:18:20;25.65;60.68
77467;DHT22;66564;42.482;25.548;2023-06-26T15:20:45;25.49;60.62
77467;DHT22;66564;42.482;25.548;2023-06-26T15:23:11;25.26;60.73
77467;DHT22;66564;42.482;25.548;2023-06-26T15:25:37;25.01;60.75